• Join FlightAware (Why Join?)
  • Login
  • US Flag GB Flag 
10:53 EDT


 

Airport Tracker/Info


-or-


 

Live Flight TrackerFlight Track Log ✈ SWA286 ✈ 15-Apr-2013 ✈ KBNA - KDEN

Flight Track Log - Related Links

Times and Time Zones

All times are in EDT time to prevent confusion due to time zone crossing. See the SWA286 flight status page for this flight to view local times or setup timezone preferences in your user account.

Time Position Orientation Groundspeed Altitude Reporting Facility
EDT Latitude Longitude Course Direction KTS MPH feet Rate Location/Type
16:38 36.1000 -86.6833 270° West 157 181 1,100  Level Nashville TRACON
16:39 36.1000 -86.7333 270° West 215 247 2,800 2,100 Climbing Nashville TRACON
16:40 36.1164 -86.8164 284° West 243 280 5,200 3,180 Climbing Memphis Center
16:41 36.1417 -86.9028 290° West 264 304 9,200 3,300 Climbing Memphis Center
16:42 36.1692 -86.9967 290° West 281 323 11,800 2,520 Climbing Memphis Center
16:43 36.2039 -87.1214 289° West 321 369 14,300 2,700 Climbing Memphis Center
16:44 36.2381 -87.2358 290° West 353 406 17,300 2,820 Climbing Memphis Center
16:45 36.2722 -87.3553 290° West 362 417 20,000 2,700 Climbing Memphis Center
16:46 36.3064 -87.4778 289° West 362 417 22,700 2,400 Climbing Memphis Center
16:47 36.3592 -87.5994 298° West 375 432 24,900 1,980 Climbing Memphis Center
16:48 36.3975 -87.7247 291° West 390 449 26,700 1,620 Climbing Memphis Center
16:49 36.4314 -87.8603 287° West 408 470 28,200 1,500 Climbing Memphis Center
16:50 36.4672 -87.9831 290° West 418 481 29,800 1,680 Climbing Memphis Center
16:51 36.5031 -88.1186 288° West 418 481 31,600 1,800 Climbing Memphis Center
16:52 36.5408 -88.2519 289° West 418 481 33,500 1,740 Climbing Memphis Center
16:53 36.5744 -88.3828 288° West 418 481 35,100 1,440 Climbing Memphis Center
16:54 36.6119 -88.5164 289° West 412 474 36,400 1,260 Climbing Memphis Center
16:55 36.6450 -88.6475 287° West 412 474 37,700 780 Climbing Memphis Center
16:56 36.6781 -88.7786 287° West 401 461 38,000 120 Climbing Memphis Center
16:57 36.7108 -88.9100 287° West 401 461 38,000  Level Memphis Center
16:58 36.7456 -89.0389 289° West 401 461 38,000  Level Memphis Center
16:59 36.7781 -89.1681 287° West 401 461 38,000  Level Memphis Center
17:00 36.8106 -89.2997 287° West 401 461 38,000  Level Memphis Center
17:01 36.8431 -89.4261 288° West 396 456 38,000  Level Memphis Center
17:02 36.8731 -89.5531 286° West 396 456 38,000  Level Memphis Center
17:03 36.9050 -89.6822 287° West 396 456 38,000  Level Memphis Center
17:04 36.9369 -89.8092 288° West 396 456 38,000  Level Memphis Center
17:05 36.9667 -89.9389 286° West 391 450 38,000  Level Memphis Center
17:06 37.0025 -90.0817 287° West 391 450 38,000  Level Memphis Center
17:07 37.0319 -90.2114 286° West 398 458 38,000  Level Memphis Center
17:08 37.0611 -90.3283 287° West 398 458 38,000  Level Memphis Center
17:10 37.1106 -90.5228 288° West 390 449 38,000  Level Kansas City Center
17:11 37.1414 -90.6519 287° West 387 445 38,000  Level Kansas City Center
17:12 37.1747 -90.7972 286° West 385 443 38,000  Level Kansas City Center
17:13 37.2047 -90.9242 287° West 381 438 38,000  Level Kansas City Center
17:14 37.2353 -91.0514 287° West 380 437 38,000  Level Kansas City Center
17:15 37.2639 -91.1786 286° West 379 436 38,000  Level Kansas City Center
17:16 37.2933 -91.3081 286° West 380 437 38,000  Level Kansas City Center
17:17 37.3231 -91.4369 286° West 382 440 38,000  Level Kansas City Center
17:18 37.3542 -91.5650 287° West 383 441 38,000  Level Kansas City Center
17:19 37.3844 -91.6936 287° West 383 441 38,000  Level Kansas City Center
17:20 37.4200 -91.8500 286° West 384 442 38,000  Level Kansas City Center
17:21 37.4492 -91.9797 286° West 384 442 38,000  Level Kansas City Center
17:22 37.4781 -92.1097 286° West 384 442 38,000  Level Kansas City Center
17:23 37.5072 -92.2375 286° West 380 437 38,000  Level Kansas City Center
17:24 37.5361 -92.3653 286° West 377 434 38,000  Level Kansas City Center
17:25 37.5636 -92.4919 285° West 374 430 38,000  Level Kansas City Center
17:26 37.5925 -92.6181 286° West 372 428 38,000  Level Kansas City Center
17:27 37.6194 -92.7447 285° West 372 428 38,000  Level Kansas City Center
17:29 37.6539 -92.8958 286° West 371 427 38,000  Level Kansas City Center
17:30 37.6817 -93.0256 285° West 376 433 38,000  Level Kansas City Center
17:31 37.7092 -93.1522 285° West 374 430 38,000  Level Kansas City Center
17:32 37.7378 -93.2808 286° West 377 434 38,000  Level Kansas City Center
17:33 37.7642 -93.4067 285° West 373 429 38,000  Level Kansas City Center
17:34 37.7911 -93.5325 285° West 369 425 38,000  Level Kansas City Center
17:35 37.8164 -93.6586 284° West 369 425 38,000  Level Kansas City Center
17:36 37.8433 -93.7803 286° West 361 415 38,000  Level Kansas City Center
17:37 37.8750 -93.9289 285° West 362 417 38,000  Level Kansas City Center
17:38 37.8997 -94.0517 284° West 361 415 38,000  Level Kansas City Center
17:39 37.9244 -94.1758 284° West 361 415 38,000  Level Kansas City Center
17:40 37.9503 -94.3011 285° West 364 419 38,000  Level Kansas City Center
17:41 37.9747 -94.4203 285° West 365 420 38,000  Level Kansas City Center
17:42 38.0025 -94.5603 284° West 366 421 38,000  Level Kansas City Center
17:43 38.0275 -94.6797 285° West 366 421 38,000  Level Kansas City Center
17:44 38.0550 -94.8206 284° West 366 421 38,000  Level Kansas City Center
17:45 38.0786 -94.9419 284° West 369 425 38,000  Level Kansas City Center
17:46 38.1061 -95.0803 284° West 365 420 38,000  Level Kansas City Center
17:47 38.1297 -95.2003 284° West 363 418 38,000  Level Kansas City Center
17:48 38.1528 -95.3194 284° West 361 415 38,000  Level Kansas City Center
17:49 38.1800 -95.4569 284° West 359 413 38,000  Level Kansas City Center
17:50 38.2017 -95.5750 283° West 359 413 38,000  Level Kansas City Center
17:51 38.2286 -95.7128 284° West 359 413 38,000  Level Kansas City Center
17:52 38.2519 -95.8322 284° West 361 415 38,000  Level Kansas City Center
17:53 38.2781 -95.9728 283° West 365 420 38,000  Level Kansas City Center
17:54 38.3008 -96.0922 284° West 362 417 38,000  Level Kansas City Center
17:55 38.3233 -96.2128 283° West 365 420 38,000  Level Kansas City Center
17:56 38.3494 -96.3544 283° West 367 422 38,000  Level Kansas City Center
17:57 38.3719 -96.4853 282° West 365 420 38,000  Level Kansas City Center
17:58 38.3961 -96.6125 284° West 369 425 38,000  Level Kansas City Center
17:59 38.4189 -96.7372 283° West 363 418 38,000  Level Kansas City Center
18:00 38.4414 -96.8619 283° West 363 418 38,000  Level Kansas City Center
18:01 38.4639 -96.9867 283° West 363 418 38,000  Level Kansas City Center
18:03 38.4908 -97.1381 283° West 365 420 38,000  Level Kansas City Center
18:04 38.5083 -97.2650 280° West 365 420 38,000  Level Kansas City Center
18:05 38.5200 -97.3928 277° West 364 419 38,000  Level Kansas City Center
18:06 38.5314 -97.5206 277° West 365 420 38,000  Level Kansas City Center
18:07 38.5431 -97.6481 277° West 364 419 38,000  Level Kansas City Center
18:08 38.5547 -97.7758 277° West 365 420 38,000  Level Kansas City Center
18:09 38.5686 -97.9286 277° West 363 418 38,000  Level Kansas City Center
18:10 38.5806 -98.0558 277° West 362 417 38,000  Level Kansas City Center
18:11 38.5908 -98.1814 276° West 359 413 38,000  Level Kansas City Center
18:12 38.6017 -98.3072 276° West 358 412 38,000  Level Kansas City Center
18:13 38.6128 -98.4322 277° West 357 411 38,000  Level Kansas City Center
18:14 38.6236 -98.5569 276° West 355 409 38,000  Level Kansas City Center
18:15 38.6367 -98.7069 276° West 355 409 38,000  Level Kansas City Center
18:16 38.6469 -98.8347 276° West 361 415 38,000  Level Kansas City Center
18:17 38.6556 -98.9625 275° West 362 417 38,000  Level Kansas City Center
18:18 38.6683 -99.0897 277° West 362 417 38,000  Level Kansas City Center
18:19 38.6772 -99.2183 275° West 364 419 38,000  Level Kansas City Center
18:20 38.6875 -99.3469 276° West 364 419 38,000  Level Kansas City Center
18:20 38.6914 -99.4228 274° West 361 415 38,000  Level Denver Center
18:21 38.7022 -99.5450 277° West 362 417 38,000  Level Denver Center
18:23 38.7108 -99.6664 275° West 359 413 38,000  Level Denver Center
18:24 38.7219 -99.8072 276° West 359 413 38,000  Level Denver Center
18:25 38.7300 -99.9289 275° West 359 413 38,000  Level Denver Center
18:26 38.7406 -100.0683 276° West 355 409 38,000  Level Denver Center
18:27 38.7486 -100.1883 275° West 354 407 38,000 -180 Level Denver Center
18:28 38.7583 -100.3275 275° West 352 405 37,700 -600 Descending Denver Center
18:29 38.7661 -100.4464 275° West 352 405 36,800 -1,020 Descending Denver Center
18:30 38.7758 -100.5872 275° West 356 410 35,700 -1,020 Descending Denver Center
18:31 38.7833 -100.7103 275° West 361 415 34,800 -840 Descending Denver Center
18:32 38.7919 -100.8381 275° West 369 425 34,000 -420 Descending Denver Center
18:33 38.8006 -100.9856 274° West 372 428 34,000  Level Denver Center
18:34 38.8092 -101.1100 275° West 370 426 34,000  Level Denver Center
18:35 38.8183 -101.2556 275° West 369 425 34,000  Level Denver Center
18:36 38.8261 -101.3808 275° West 370 426 34,000  Level Denver Center
18:37 38.8344 -101.5267 274° West 368 423 34,000  Level Denver Center
18:38 38.8411 -101.6500 274° West 363 418 34,000  Level Denver Center
18:39 38.8494 -101.7975 274° West 368 423 34,000  Level Denver Center
18:40 38.8478 -101.9219 269° West 365 420 34,000  Level Denver Center
18:41 38.8464 -102.0256 269° West 364 419 34,000  Level Denver Center
18:42 38.8444 -102.1914 269° West 365 420 34,000  Level Denver Center
18:43 38.8408 -102.3167 268° West 368 423 34,000  Level Denver Center
18:44 38.8392 -102.4608 269° West 363 418 34,000  Level Denver Center
18:45 38.8361 -102.5847 268° West 364 419 34,000  Level Denver Center
18:46 38.8344 -102.7294 269° West 365 420 34,000  Level Denver Center
18:47 38.8806 -102.8444 297° West 383 441 34,000  Level Denver Center
18:48 38.9369 -102.9636 301° West 386 444 34,000 -120 Level Denver Center
18:49 38.9939 -103.0825 302° West 388 447 33,800 -1,500 Descending Denver Center
18:50 39.0514 -103.1994 302° West 386 444 31,000 -2,520 Descending Denver Center
18:51 39.1017 -103.3097 300° West 354 407 28,700 -2,280 Descending Denver Center
18:52 39.1589 -103.4294 302° West 334 384 26,300 -2,160 Descending Denver Center
18:53 39.2064 -103.5272 302° West 320 368 24,300 -1,860 Descending Denver Center
18:54 39.2442 -103.6075 301° West 314 361 22,600 -1,980 Descending Denver Center
18:55 39.2964 -103.7217 301° West 315 362 20,300 -2,100 Descending Denver Center
18:56 39.3431 -103.8225 301° West 322 371 18,400 -1,620 Descending Denver Center
18:57 39.3906 -103.9264 301° West 319 367 17,000 -1,140 Descending Denver Center
18:58 39.4000 -104.0258 277° West 274 315 16,100 -1,200 Descending Denver Center
19:00 39.4053 -104.1206 274° West 265 305 14,600 -1,440 Descending Denver Center
19:01 39.4094 -104.2372 273° West 300 345 13,200 -1,080 Descending Denver Center
19:02 39.4150 -104.3442 274° West 295 339 12,400 -1,080 Descending Denver Center
19:03 39.4225 -104.4458 275° West 287 330 11,000 -720 Descending Denver Center
19:04 39.4336 -104.5503 278° West 274 315 11,000 -60 Level Denver Center
19:05 39.4650 -104.6292 297° West 263 303 10,900 -360 Descending Denver Center
19:06 39.5331 -104.6650 338° Northwest 264 304 10,300 -480 Descending Denver Center
19:07 39.6031 -104.6642 North 234 269 10,000 -720 Descending Denver Center
19:08 39.6608 -104.6633 North 211 243 8,900 -1,080 Descending Denver Center
19:09 39.7119 -104.6625 North 188 216 7,800 -1,020 Descending Denver Center
19:10 39.7597 -104.6617 North 163 188 6,900 -840 Descending Denver Center
19:11 39.7969 -104.6611 North 137 158 6,100 -780 Descending Denver Center
19:12 39.8375 -104.6608 360° North 136 157 5,300 -780 Descending Denver Center
19:14 39.8500 -104.6667 North  Level FlightAware Approximate
19:21 39.8617 -104.6732 North  Level Estimated
19:22 39.8617 -104.6732 North  Level Estimated